createdAt,value
2022-10-07T00:02:47.590Z,10.02
2022-10-07T00:05:35.930Z,9.98
2022-10-07T00:08:24.947Z,9.93
2022-10-07T00:11:15.635Z,9.84
2022-10-07T00:14:10.912Z,9.74
2022-10-07T00:17:08.018Z,9.71
2022-10-07T00:20:15.241Z,9.61
2022-10-07T00:23:38.942Z,9.51
2022-10-07T00:26:44.391Z,9.42
2022-10-07T00:30:07.986Z,9.36
2022-10-07T00:33:10.611Z,9.32
2022-10-07T00:36:16.344Z,9.29
2022-10-07T00:39:32.606Z,9.28
2022-10-07T00:42:29.859Z,9.27
2022-10-07T00:45:57.238Z,9.26
2022-10-07T00:48:55.220Z,9.22
2022-10-07T00:51:53.114Z,9.18
2022-10-07T00:54:55.054Z,9.16
2022-10-07T00:57:55.914Z,9.11
2022-10-07T01:00:45.300Z,9.09
2022-10-07T01:03:33.859Z,9.05
2022-10-07T01:06:22.371Z,9.00
2022-10-07T01:09:20.990Z,8.97
2022-10-07T01:12:43.221Z,8.91
2022-10-07T01:16:07.633Z,8.85
2022-10-07T01:19:29.305Z,8.82
2022-10-07T01:23:01.335Z,8.76
2022-10-07T01:26:52.999Z,8.69
2022-10-07T01:30:24.954Z,8.57
2022-10-07T01:33:37.941Z,8.53
2022-10-07T01:36:31.892Z,8.50
2022-10-07T01:39:42.862Z,8.45
2022-10-07T01:42:49.346Z,8.42
2022-10-07T01:45:43.468Z,8.40
2022-10-07T01:49:04.236Z,8.41
2022-10-07T01:52:08.042Z,8.43
2022-10-07T01:55:17.922Z,8.38
2022-10-07T01:58:51.433Z,8.35
2022-10-07T02:02:26.603Z,8.33
2022-10-07T02:05:44.601Z,8.36
2022-10-07T02:09:13.800Z,8.35
2022-10-07T02:12:28.114Z,8.33
2022-10-07T02:15:48.881Z,8.32
2022-10-07T02:18:42.846Z,8.28
2022-10-07T02:22:03.105Z,8.24
2022-10-07T02:25:14.055Z,8.20
2022-10-07T02:28:26.521Z,8.16
2022-10-07T02:31:41.314Z,8.11
2022-10-07T02:34:48.659Z,8.03
2022-10-07T02:38:08.502Z,8.02
2022-10-07T02:41:51.884Z,8.04
2022-10-07T02:45:37.335Z,8.07
2022-10-07T02:48:59.638Z,8.13
2022-10-07T02:52:41.478Z,8.17
2022-10-07T02:55:42.576Z,8.19
2022-10-07T02:58:56.180Z,8.20
2022-10-07T03:02:16.772Z,8.20
2022-10-07T03:05:42.798Z,8.21
2022-10-07T03:08:52.661Z,8.19
2022-10-07T03:11:49.537Z,8.12
2022-10-07T03:14:49.903Z,8.11
2022-10-07T03:17:36.046Z,8.11
2022-10-07T03:20:47.575Z,8.10
2022-10-07T03:23:51.288Z,8.13
2022-10-07T03:26:37.913Z,8.13
2022-10-07T03:29:38.936Z,8.14
2022-10-07T03:32:46.471Z,8.09
2022-10-07T03:35:27.078Z,8.05
2022-10-07T03:38:30.190Z,8.04
2022-10-07T03:41:27.047Z,8.05
2022-10-07T03:44:41.174Z,8.09
2022-10-07T03:47:38.529Z,8.13
2022-10-07T03:50:06.262Z,8.09
2022-10-07T03:52:32.792Z,8.08
2022-10-07T03:54:59.341Z,8.08
2022-10-07T03:57:44.867Z,8.09
2022-10-07T04:00:12.340Z,8.04
2022-10-07T04:02:38.922Z,8.00
2022-10-07T04:05:05.667Z,7.98
2022-10-07T04:07:33.309Z,7.94
2022-10-07T04:10:00.332Z,7.87
2022-10-07T04:12:26.857Z,7.84
2022-10-07T04:14:54.213Z,7.82
2022-10-07T04:17:21.937Z,7.78
2022-10-07T04:19:48.503Z,7.73
2022-10-07T04:22:15.034Z,7.67
2022-10-07T04:24:41.607Z,7.63
2022-10-07T04:27:08.187Z,7.63
2022-10-07T04:29:39.004Z,7.62
2022-10-07T04:32:05.933Z,7.63
2022-10-07T04:34:32.798Z,7.64
2022-10-07T04:37:01.261Z,7.63
2022-10-07T04:39:48.937Z,7.60
2022-10-07T04:42:34.793Z,7.54
2022-10-07T04:45:01.450Z,7.51
2022-10-07T04:47:28.040Z,7.52
2022-10-07T04:49:55.265Z,7.53
2022-10-07T04:52:21.915Z,7.54
2022-10-07T04:54:48.559Z,7.55
2022-10-07T04:57:15.128Z,7.54
2022-10-07T04:59:43.088Z,7.53
2022-10-07T05:02:10.075Z,7.55
2022-10-07T05:04:37.165Z,7.57
2022-10-07T05:07:04.189Z,7.55
2022-10-07T05:09:30.836Z,7.53
2022-10-07T05:11:57.520Z,7.56
2022-10-07T05:14:24.185Z,7.63
2022-10-07T05:16:51.708Z,7.72
2022-10-07T05:19:18.818Z,7.78
2022-10-07T05:21:45.908Z,7.87
2022-10-07T05:24:12.496Z,7.96
2022-10-07T05:26:39.048Z,8.04
2022-10-07T05:29:07.082Z,8.14
2022-10-07T05:31:34.133Z,8.21
2022-10-07T05:34:01.031Z,8.31
2022-10-07T05:36:27.623Z,8.42
2022-10-07T05:38:58.160Z,8.53
2022-10-07T05:41:24.920Z,8.65
2022-10-07T05:43:51.560Z,8.78
2022-10-07T05:46:20.649Z,8.88
2022-10-07T05:48:49.013Z,8.99
2022-10-07T05:51:15.725Z,9.10
2022-10-07T05:53:43.169Z,9.25
2022-10-07T05:56:12.688Z,9.41
2022-10-07T05:58:39.449Z,9.55
2022-10-07T06:01:13.704Z,9.65
2022-10-07T06:03:41.705Z,9.75
2022-10-07T06:06:09.145Z,9.88
2022-10-07T06:08:36.719Z,10.10
2022-10-07T06:11:23.772Z,10.30
2022-10-07T06:13:52.938Z,10.43
2022-10-07T06:16:20.151Z,10.52
2022-10-07T06:18:47.895Z,10.55
2022-10-07T06:21:14.445Z,10.56
2022-10-07T06:23:41.014Z,10.54
2022-10-07T06:26:10.650Z,10.55
2022-10-07T06:28:42.228Z,10.59
2022-10-07T06:31:15.136Z,10.66
2022-10-07T06:33:41.963Z,10.73
2022-10-07T06:36:13.402Z,10.82
2022-10-07T06:38:48.263Z,10.98
2022-10-07T06:41:16.027Z,11.11
2022-10-07T06:43:42.832Z,11.22
2022-10-07T06:46:14.783Z,11.35
2022-10-07T06:48:43.049Z,11.52
2022-10-07T06:51:13.797Z,11.76
2022-10-07T06:53:40.369Z,11.91
2022-10-07T06:56:06.978Z,12.03
2022-10-07T06:58:33.619Z,12.16
2022-10-07T07:01:00.906Z,12.37
2022-10-07T07:03:29.079Z,12.66
2022-10-07T07:05:55.979Z,12.97
2022-10-07T07:08:27.698Z,13.22
2022-10-07T07:10:54.630Z,13.38
2022-10-07T07:13:21.463Z,13.52
2022-10-07T07:15:55.528Z,13.61
2022-10-07T07:19:11.649Z,13.83
2022-10-07T07:21:38.395Z,13.99
2022-10-07T07:24:05.662Z,14.16
2022-10-07T07:26:32.689Z,14.41
2022-10-07T07:29:02.404Z,14.62
2022-10-07T07:31:32.977Z,14.85
2022-10-07T07:34:01.963Z,15.10
2022-10-07T07:36:31.015Z,15.36
2022-10-07T07:39:04.063Z,15.66
2022-10-07T07:41:33.210Z,15.87
2022-10-07T07:44:03.582Z,15.97
2022-10-07T07:46:36.270Z,16.14
2022-10-07T07:49:03.989Z,16.39
2022-10-07T07:51:31.969Z,16.64
2022-10-07T07:53:59.896Z,16.77
2022-10-07T07:56:29.250Z,16.93
2022-10-07T07:58:56.589Z,17.21
2022-10-07T08:01:23.274Z,17.30
2022-10-07T08:03:51.017Z,17.32
2022-10-07T08:06:20.792Z,17.28
2022-10-07T08:08:48.099Z,17.18
2022-10-07T08:11:19.654Z,17.10
2022-10-07T08:13:47.227Z,17.09
2022-10-07T08:16:17.355Z,16.99
2022-10-07T08:18:47.356Z,16.84
2022-10-07T08:21:18.272Z,16.72
2022-10-07T08:23:45.729Z,16.76
2022-10-07T08:26:12.253Z,16.84
2022-10-07T08:28:40.288Z,16.97
2022-10-07T08:31:15.550Z,17.10
2022-10-07T08:33:45.124Z,17.20
2022-10-07T08:36:19.926Z,17.27
2022-10-07T08:38:49.461Z,17.45
2022-10-07T08:41:19.914Z,17.63
2022-10-07T08:43:51.092Z,17.67
2022-10-07T08:46:31.100Z,17.78
2022-10-07T08:49:10.597Z,17.90
2022-10-07T08:52:17.073Z,18.08
2022-10-07T08:54:43.688Z,18.19
2022-10-07T08:57:20.545Z,18.19
2022-10-07T08:59:53.849Z,18.24
2022-10-07T09:03:28.479Z,18.23
2022-10-07T09:05:57.199Z,18.30
2022-10-07T09:08:32.691Z,18.48
2022-10-07T09:11:15.903Z,18.65
2022-10-07T09:14:11.203Z,18.78
2022-10-07T09:16:43.376Z,18.87
2022-10-07T09:19:32.026Z,18.95
2022-10-07T09:22:06.519Z,19.07
2022-10-07T09:24:35.053Z,19.15
2022-10-07T09:27:09.152Z,19.24
2022-10-07T09:29:36.686Z,19.34
2022-10-07T09:32:03.353Z,19.41
2022-10-07T09:34:31.265Z,19.52
2022-10-07T09:37:26.719Z,19.63
2022-10-07T09:39:57.351Z,19.72
2022-10-07T09:42:31.679Z,19.83
2022-10-07T09:45:02.110Z,19.94
2022-10-07T09:47:36.772Z,20.01
2022-10-07T09:50:04.149Z,19.93
2022-10-07T09:52:32.343Z,19.79
2022-10-07T09:55:41.773Z,19.76
2022-10-07T09:58:17.782Z,19.77
2022-10-07T10:00:49.646Z,19.76
2022-10-07T10:03:17.484Z,19.75
2022-10-07T10:05:55.298Z,19.85
2022-10-07T10:08:24.220Z,19.93
2022-10-07T10:10:59.096Z,19.98
2022-10-07T10:13:32.750Z,20.08
2022-10-07T10:16:00.569Z,20.21
2022-10-07T10:18:36.614Z,20.39
2022-10-07T10:21:20.223Z,20.56
2022-10-07T10:23:49.528Z,20.59
2022-10-07T10:26:42.126Z,20.64
2022-10-07T10:29:27.188Z,20.66
2022-10-07T10:32:25.621Z,20.72
2022-10-07T10:35:14.323Z,20.83
2022-10-07T10:37:40.881Z,20.83
2022-10-07T10:40:29.047Z,20.86
2022-10-07T10:43:25.823Z,20.92
2022-10-07T10:46:22.541Z,21.00
2022-10-07T10:49:14.065Z,21.05
2022-10-07T10:51:53.330Z,21.05
2022-10-07T10:54:43.372Z,21.09
2022-10-07T10:57:32.287Z,21.11
2022-10-07T11:00:11.275Z,21.18
2022-10-07T11:02:37.838Z,21.16
2022-10-07T11:05:22.030Z,21.16
2022-10-07T11:08:10.449Z,21.16
2022-10-07T11:10:52.187Z,21.27
2022-10-07T11:13:38.572Z,21.30
2022-10-07T11:16:28.008Z,21.37
2022-10-07T11:19:22.213Z,21.41
2022-10-07T11:21:50.924Z,21.45
2022-10-07T11:24:32.666Z,21.43
2022-10-07T11:27:28.435Z,21.41
2022-10-07T11:30:15.196Z,21.36
2022-10-07T11:32:49.789Z,21.37
2022-10-07T11:35:37.647Z,21.42
2022-10-07T11:38:10.408Z,21.50
2022-10-07T11:41:03.369Z,21.59
2022-10-07T11:43:33.330Z,21.73
2022-10-07T11:46:14.228Z,21.84
2022-10-07T11:48:46.808Z,21.92
2022-10-07T11:51:27.184Z,21.95
2022-10-07T11:53:57.889Z,22.00
2022-10-07T11:56:31.432Z,22.00
2022-10-07T11:59:01.034Z,21.96
2022-10-07T12:01:29.027Z,21.90
2022-10-07T12:04:00.347Z,21.90
2022-10-07T12:06:27.391Z,21.93
2022-10-07T12:08:54.571Z,21.98
2022-10-07T12:11:24.749Z,22.01
2022-10-07T12:13:53.657Z,22.05
2022-10-07T12:16:32.560Z,22.07
2022-10-07T12:19:09.776Z,22.14
2022-10-07T12:22:05.022Z,22.16
2022-10-07T12:24:34.687Z,22.27
2022-10-07T12:27:28.177Z,22.37
2022-10-07T12:29:58.877Z,22.48
2022-10-07T12:32:44.319Z,22.41
2022-10-07T12:35:29.373Z,22.28
2022-10-07T12:38:04.607Z,22.31
2022-10-07T12:40:35.001Z,22.40
2022-10-07T12:43:15.563Z,22.43
2022-10-07T12:45:43.580Z,22.41
2022-10-07T12:48:20.436Z,22.21
2022-10-07T12:50:50.968Z,22.16
2022-10-07T12:53:19.322Z,22.15
2022-10-07T12:55:50.345Z,22.11
2022-10-07T12:58:57.542Z,21.99
2022-10-07T13:01:48.256Z,21.81
2022-10-07T13:04:24.057Z,21.63
2022-10-07T13:07:12.506Z,21.52
2022-10-07T13:09:47.933Z,21.45
2022-10-07T13:12:34.549Z,21.52
2022-10-07T13:15:28.042Z,21.70
2022-10-07T13:18:40.638Z,21.89
2022-10-07T13:21:22.179Z,21.89
2022-10-07T13:23:52.554Z,21.81
2022-10-07T13:26:22.372Z,21.81
2022-10-07T13:28:58.428Z,21.80
2022-10-07T13:31:28.678Z,21.78
2022-10-07T13:33:57.452Z,21.75
2022-10-07T13:36:29.777Z,21.70
2022-10-07T13:39:31.762Z,21.57
2022-10-07T13:42:00.040Z,21.49
2022-10-07T13:44:30.867Z,21.46
2022-10-07T13:47:06.988Z,21.44
2022-10-07T13:49:38.119Z,21.43
2022-10-07T13:52:21.728Z,21.47
2022-10-07T13:54:52.859Z,21.46
2022-10-07T13:57:21.518Z,21.43
2022-10-07T13:59:49.499Z,21.42
2022-10-07T14:02:16.634Z,21.41
2022-10-07T14:04:50.668Z,21.36
2022-10-07T14:07:20.101Z,21.30
2022-10-07T14:09:46.617Z,21.26
2022-10-07T14:12:18.218Z,21.18
2022-10-07T14:14:52.176Z,21.12
2022-10-07T14:17:21.859Z,21.08
2022-10-07T14:19:56.298Z,21.03
2022-10-07T14:22:34.364Z,20.98
2022-10-07T14:25:04.367Z,20.93
2022-10-07T14:27:40.017Z,20.89
2022-10-07T14:30:29.429Z,20.83
2022-10-07T14:33:25.786Z,20.75
2022-10-07T14:36:12.856Z,20.66
2022-10-07T14:38:41.283Z,20.62
2022-10-07T14:41:09.687Z,20.58
2022-10-07T14:43:39.271Z,20.53
2022-10-07T14:46:12.142Z,20.48
2022-10-07T14:48:39.035Z,20.42
2022-10-07T14:51:05.871Z,20.36
2022-10-07T14:53:33.217Z,20.28
2022-10-07T14:55:59.917Z,20.20
2022-10-07T14:58:26.592Z,20.11
2022-10-07T15:00:53.238Z,20.02
2022-10-07T15:03:20.166Z,19.94
2022-10-07T15:05:48.887Z,19.86
2022-10-07T15:08:15.382Z,19.78
2022-10-07T15:10:41.952Z,19.69
2022-10-07T15:13:13.211Z,19.59
2022-10-07T15:15:42.465Z,19.47
2022-10-07T15:18:11.491Z,19.35
2022-10-07T15:20:39.758Z,19.23
2022-10-07T15:23:08.201Z,19.11
2022-10-07T15:25:35.887Z,18.97
2022-10-07T15:28:02.496Z,18.84
2022-10-07T15:30:29.921Z,18.69
2022-10-07T15:32:58.370Z,18.54
2022-10-07T15:35:27.102Z,18.41
2022-10-07T15:37:54.545Z,18.28
2022-10-07T15:40:21.182Z,18.15
2022-10-07T15:42:48.191Z,18.02
2022-10-07T15:45:15.171Z,17.89
2022-10-07T15:47:41.758Z,17.74
2022-10-07T15:50:08.809Z,17.60
2022-10-07T15:52:35.401Z,17.45
2022-10-07T15:55:07.896Z,17.33
2022-10-07T15:57:35.190Z,17.19
2022-10-07T16:00:02.527Z,17.04
2022-10-07T16:02:29.203Z,16.93
2022-10-07T16:04:55.831Z,16.80
2022-10-07T16:07:22.485Z,16.68
2022-10-07T16:09:49.033Z,16.54
2022-10-07T16:12:15.579Z,16.39
2022-10-07T16:14:42.136Z,16.25
2022-10-07T16:17:08.766Z,16.12
2022-10-07T16:19:35.424Z,16.02
2022-10-07T16:22:02.028Z,15.91
2022-10-07T16:24:34.072Z,15.82
2022-10-07T16:27:01.672Z,15.71
2022-10-07T16:29:47.054Z,15.63
2022-10-07T16:32:13.633Z,15.52
2022-10-07T16:34:43.612Z,15.41
2022-10-07T16:37:11.251Z,15.32
2022-10-07T16:39:37.862Z,15.24
2022-10-07T16:42:04.499Z,15.14
2022-10-07T16:44:31.092Z,15.04
2022-10-07T16:46:59.209Z,14.95
2022-10-07T16:49:27.828Z,14.86
2022-10-07T16:51:54.546Z,14.76
2022-10-07T16:54:21.931Z,14.63
2022-10-07T16:56:50.850Z,14.56
2022-10-07T16:59:22.580Z,14.47
2022-10-07T17:01:56.351Z,14.40
2022-10-07T17:04:24.659Z,14.33
2022-10-07T17:06:51.721Z,14.26
2022-10-07T17:09:18.635Z,14.19
2022-10-07T17:11:45.897Z,14.12
2022-10-07T17:14:17.333Z,14.06
2022-10-07T17:16:49.883Z,13.99
2022-10-07T17:19:19.823Z,13.93
2022-10-07T17:21:48.326Z,13.85
2022-10-07T17:24:16.106Z,13.78
2022-10-07T17:26:43.390Z,13.72
2022-10-07T17:29:12.202Z,13.67
2022-10-07T17:31:41.047Z,13.62
2022-10-07T17:34:07.702Z,13.58
2022-10-07T17:36:35.367Z,13.53
2022-10-07T17:39:02.703Z,13.46
2022-10-07T17:41:32.333Z,13.40
2022-10-07T17:44:01.526Z,13.38
2022-10-07T17:46:30.651Z,13.33
2022-10-07T17:48:59.341Z,13.29
2022-10-07T17:51:30.049Z,13.25
2022-10-07T17:53:59.846Z,13.18
2022-10-07T17:56:28.398Z,13.11
2022-10-07T17:58:55.923Z,13.06
2022-10-07T18:01:27.367Z,13.01
2022-10-07T18:04:02.161Z,12.97
2022-10-07T18:06:37.697Z,12.90
2022-10-07T18:09:06.568Z,12.85
2022-10-07T18:11:52.993Z,12.84
2022-10-07T18:14:38.353Z,12.82
2022-10-07T18:17:06.446Z,12.79
2022-10-07T18:19:33.139Z,12.77
2022-10-07T18:21:59.807Z,12.75
2022-10-07T18:24:28.966Z,12.73
2022-10-07T18:26:59.475Z,12.73
2022-10-07T18:29:31.993Z,12.72
2022-10-07T18:31:59.344Z,12.69
2022-10-07T18:34:26.172Z,12.67
2022-10-07T18:36:56.542Z,12.63
2022-10-07T18:39:24.825Z,12.60
2022-10-07T18:41:51.532Z,12.59
2022-10-07T18:44:18.073Z,12.56
2022-10-07T18:46:45.146Z,12.50
2022-10-07T18:49:13.944Z,12.45
2022-10-07T18:51:41.262Z,12.39
2022-10-07T18:54:07.942Z,12.33
2022-10-07T18:56:39.812Z,12.30
2022-10-07T18:59:08.645Z,12.25
2022-10-07T19:01:35.279Z,12.20
2022-10-07T19:04:03.233Z,12.13
2022-10-07T19:06:32.680Z,12.09
2022-10-07T19:09:05.267Z,12.05
2022-10-07T19:11:31.853Z,12.02
2022-10-07T19:13:59.585Z,12.01
2022-10-07T19:16:35.407Z,11.98
2022-10-07T19:19:05.296Z,11.97
2022-10-07T19:21:33.571Z,11.96
2022-10-07T19:24:03.564Z,11.95
2022-10-07T19:26:39.597Z,11.94
2022-10-07T19:29:09.141Z,11.91
2022-10-07T19:31:40.364Z,11.89
2022-10-07T19:34:09.878Z,11.88
2022-10-07T19:36:42.494Z,11.87
2022-10-07T19:39:10.747Z,11.86
2022-10-07T19:41:37.749Z,11.86
2022-10-07T19:44:05.698Z,11.86
2022-10-07T19:46:33.664Z,11.87
2022-10-07T19:49:02.270Z,11.87
2022-10-07T19:51:30.772Z,11.87
2022-10-07T19:53:59.898Z,11.85
2022-10-07T19:56:29.500Z,11.84
2022-10-07T19:58:58.547Z,11.81
2022-10-07T20:01:27.866Z,11.81
2022-10-07T20:04:08.917Z,11.80
2022-10-07T20:06:36.961Z,11.78
2022-10-07T20:09:05.304Z,11.76
2022-10-07T20:11:32.857Z,11.75
2022-10-07T20:14:00.057Z,11.72
2022-10-07T20:16:27.921Z,11.70
2022-10-07T20:19:01.132Z,11.70
2022-10-07T20:21:29.881Z,11.68
2022-10-07T20:23:56.807Z,11.67
2022-10-07T20:26:26.108Z,11.67
2022-10-07T20:28:55.582Z,11.67
2022-10-07T20:31:28.555Z,11.67
2022-10-07T20:33:56.632Z,11.66
2022-10-07T20:36:29.521Z,11.68
2022-10-07T20:39:17.850Z,11.70
2022-10-07T20:42:03.303Z,11.74
2022-10-07T20:44:30.484Z,11.79
2022-10-07T20:46:57.398Z,11.82
2022-10-07T20:49:28.558Z,11.87
2022-10-07T20:51:59.533Z,11.91
2022-10-07T20:54:26.901Z,11.95
2022-10-07T20:56:55.036Z,11.97
2022-10-07T20:59:21.696Z,11.98
2022-10-07T21:01:48.313Z,11.99
2022-10-07T21:04:15.665Z,11.99
2022-10-07T21:06:43.574Z,11.98
2022-10-07T21:09:11.467Z,11.97
2022-10-07T21:11:38.652Z,11.96
2022-10-07T21:14:05.326Z,11.92
2022-10-07T21:16:35.173Z,11.85
2022-10-07T21:19:02.012Z,11.79
2022-10-07T21:21:29.091Z,11.76
2022-10-07T21:23:55.761Z,11.74
2022-10-07T21:26:23.057Z,11.73
2022-10-07T21:28:49.648Z,11.70
2022-10-07T21:31:19.261Z,11.68
2022-10-07T21:33:48.866Z,11.66
2022-10-07T21:36:21.092Z,11.65
2022-10-07T21:38:53.469Z,11.63
2022-10-07T21:41:23.280Z,11.60
2022-10-07T21:43:51.820Z,11.61
2022-10-07T21:46:19.039Z,11.60
2022-10-07T21:48:45.710Z,11.60
2022-10-07T21:51:13.187Z,11.60
2022-10-07T21:53:40.096Z,11.60
2022-10-07T21:56:08.569Z,11.59
2022-10-07T21:58:35.887Z,11.59
2022-10-07T22:01:11.828Z,11.59
2022-10-07T22:03:38.903Z,11.58
2022-10-07T22:06:08.082Z,11.55
2022-10-07T22:08:35.762Z,11.53
2022-10-07T22:11:19.284Z,11.50
2022-10-07T22:13:53.394Z,11.46
2022-10-07T22:16:20.085Z,11.42
2022-10-07T22:18:52.070Z,11.41
2022-10-07T22:21:23.941Z,11.37
2022-10-07T22:24:01.726Z,11.34
2022-10-07T22:26:33.443Z,11.31
2022-10-07T22:29:00.405Z,11.24
2022-10-07T22:31:27.236Z,11.19
2022-10-07T22:33:56.745Z,11.16
2022-10-07T22:36:23.396Z,11.13
2022-10-07T22:38:50.439Z,11.10
2022-10-07T22:41:19.443Z,11.06
2022-10-07T22:43:47.717Z,11.03
2022-10-07T22:46:26.309Z,10.97
2022-10-07T22:48:56.427Z,10.92
2022-10-07T22:51:24.525Z,10.89
2022-10-07T22:53:54.505Z,10.87
2022-10-07T22:56:22.553Z,10.83
2022-10-07T22:58:54.947Z,10.81
2022-10-07T23:01:22.213Z,10.81
2022-10-07T23:03:48.880Z,10.81
2022-10-07T23:06:18.213Z,10.82
2022-10-07T23:08:46.925Z,10.81
2022-10-07T23:11:19.750Z,10.81
2022-10-07T23:13:46.673Z,10.80
2022-10-07T23:16:16.564Z,10.80
2022-10-07T23:18:45.077Z,10.79
2022-10-07T23:21:13.940Z,10.78
2022-10-07T23:23:43.706Z,10.77
2022-10-07T23:26:12.575Z,10.74
2022-10-07T23:28:39.998Z,10.71
2022-10-07T23:31:09.087Z,10.69
2022-10-07T23:33:37.242Z,10.65
2022-10-07T23:36:07.321Z,10.63
2022-10-07T23:38:34.397Z,10.61
2022-10-07T23:41:02.330Z,10.59
2022-10-07T23:43:33.471Z,10.58
2022-10-07T23:46:01.362Z,10.57
2022-10-07T23:48:28.559Z,10.56
2022-10-07T23:50:55.351Z,10.57
2022-10-07T23:53:23.247Z,10.60
2022-10-07T23:55:51.895Z,10.64
2022-10-07T23:58:21.668Z,10.67
